createdAt,value
2023-01-07T00:00:16.516Z,14.57
2023-01-07T00:02:47.343Z,11.52
2023-01-07T00:05:16.663Z,12.82
2023-01-07T00:07:45.738Z,9.73
2023-01-07T00:10:14.936Z,16.25
2023-01-07T00:12:43.993Z,10.25
2023-01-07T00:15:13.605Z,10.02
2023-01-07T00:17:42.774Z,9.80
2023-01-07T00:20:13.748Z,12.10
2023-01-07T00:22:42.869Z,11.70
2023-01-07T00:25:12.210Z,16.77
2023-01-07T00:27:41.322Z,16.60
2023-01-07T00:30:11.942Z,11.50
2023-01-07T00:32:59.850Z,8.90
2023-01-07T00:35:30.405Z,11.73
2023-01-07T00:37:59.514Z,11.43
2023-01-07T00:40:28.667Z,14.88
2023-01-07T00:43:01.747Z,10.68
2023-01-07T00:45:32.791Z,9.98
2023-01-07T00:48:03.173Z,11.00
2023-01-07T00:50:36.326Z,11.25
2023-01-07T00:53:06.324Z,8.70
2023-01-07T00:55:35.608Z,9.38
2023-01-07T00:58:04.798Z,14.70
2023-01-07T01:00:34.185Z,12.43
2023-01-07T01:03:03.890Z,11.95
2023-01-07T01:05:34.431Z,10.02
2023-01-07T01:08:03.476Z,13.88
2023-01-07T01:10:32.838Z,8.63
2023-01-07T01:13:02.433Z,9.38
2023-01-07T01:15:31.645Z,10.40
2023-01-07T01:18:00.783Z,10.98
2023-01-07T01:20:30.076Z,8.07
2023-01-07T01:23:00.575Z,10.57
2023-01-07T01:25:29.937Z,9.82
2023-01-07T01:27:59.249Z,12.40
2023-01-07T01:30:28.446Z,7.70
2023-01-07T01:32:58.597Z,8.63
2023-01-07T01:35:27.847Z,11.93
2023-01-07T01:37:57.441Z,9.45
2023-01-07T01:40:31.906Z,12.23
2023-01-07T01:43:01.389Z,7.43
2023-01-07T01:45:31.027Z,8.38
2023-01-07T01:48:05.749Z,7.40
2023-01-07T01:50:40.018Z,8.32
2023-01-07T01:53:12.535Z,9.32
2023-01-07T01:55:51.622Z,7.80
2023-01-07T01:58:24.307Z,7.55
2023-01-07T02:00:54.773Z,10.90
2023-01-07T02:03:28.520Z,7.97
2023-01-07T02:05:57.780Z,8.45
2023-01-07T02:08:27.020Z,8.93
2023-01-07T02:11:13.641Z,7.30
2023-01-07T02:14:06.438Z,7.20
2023-01-07T02:16:45.334Z,11.38
2023-01-07T02:19:50.233Z,9.35
2023-01-07T02:22:34.829Z,9.10
2023-01-07T02:25:29.593Z,10.27
2023-01-07T02:28:21.411Z,9.18
2023-01-07T02:31:23.483Z,7.65
2023-01-07T02:33:59.309Z,12.30
2023-01-07T02:36:44.188Z,11.43
2023-01-07T02:39:37.310Z,10.63
2023-01-07T02:42:17.694Z,9.48
2023-01-07T02:44:55.241Z,9.07
2023-01-07T02:47:29.604Z,10.43
2023-01-07T02:50:02.817Z,7.30
2023-01-07T02:52:36.271Z,9.80
2023-01-07T02:55:09.614Z,10.48
2023-01-07T02:58:03.436Z,11.20
2023-01-07T03:00:56.857Z,9.52
2023-01-07T03:03:48.909Z,8.75
2023-01-07T03:06:37.327Z,8.50
2023-01-07T03:09:11.888Z,7.03
2023-01-07T03:11:48.753Z,8.77
2023-01-07T03:14:21.474Z,7.80
2023-01-07T03:16:56.384Z,7.90
2023-01-07T03:19:30.559Z,8.95
2023-01-07T03:22:03.650Z,15.93
2023-01-07T03:24:34.278Z,8.85
2023-01-07T03:27:07.420Z,13.02
2023-01-07T03:29:36.893Z,8.63
2023-01-07T03:32:12.890Z,8.57
2023-01-07T03:34:43.455Z,13.90
2023-01-07T03:37:16.937Z,8.65
2023-01-07T03:39:48.749Z,11.18
2023-01-07T03:42:41.333Z,14.57
2023-01-07T03:45:16.908Z,11.60
2023-01-07T03:47:51.695Z,12.18
2023-01-07T03:50:23.004Z,15.13
2023-01-07T03:52:54.491Z,18.55
2023-01-07T03:55:25.804Z,12.98
2023-01-07T03:57:58.179Z,18.92
2023-01-07T04:00:28.085Z,17.30
2023-01-07T04:03:13.075Z,21.00
2023-01-07T04:05:45.437Z,17.08
2023-01-07T04:08:16.581Z,12.27
2023-01-07T04:10:45.802Z,13.35
2023-01-07T04:13:15.857Z,15.20
2023-01-07T04:15:47.135Z,11.25
2023-01-07T04:18:16.159Z,14.93
2023-01-07T04:20:48.362Z,13.10
2023-01-07T04:23:19.792Z,13.85
2023-01-07T04:25:51.706Z,17.63
2023-01-07T04:28:24.416Z,14.23
2023-01-07T04:30:53.571Z,13.27
2023-01-07T04:33:23.907Z,13.43
2023-01-07T04:35:53.018Z,12.10
2023-01-07T04:38:23.538Z,13.73
2023-01-07T04:40:52.641Z,15.77
2023-01-07T04:43:21.741Z,13.48
2023-01-07T04:45:50.725Z,13.90
2023-01-07T04:48:20.688Z,16.83
2023-01-07T04:50:56.788Z,12.50
2023-01-07T04:53:27.221Z,18.38
2023-01-07T04:55:57.108Z,14.38
2023-01-07T04:58:26.094Z,12.50
2023-01-07T05:00:58.584Z,14.05
2023-01-07T05:03:28.734Z,13.50
2023-01-07T05:05:58.689Z,14.20
2023-01-07T05:08:30.015Z,13.30
2023-01-07T05:11:00.135Z,11.63
2023-01-07T05:13:31.750Z,14.35
2023-01-07T05:16:02.822Z,12.52
2023-01-07T05:18:33.837Z,11.60
2023-01-07T05:21:05.236Z,14.18
2023-01-07T05:23:37.310Z,15.27
2023-01-07T05:26:06.676Z,13.90
2023-01-07T05:28:35.709Z,16.58
2023-01-07T05:31:04.849Z,16.65
2023-01-07T05:33:35.806Z,16.38
2023-01-07T05:36:05.169Z,16.55
2023-01-07T05:38:34.650Z,13.85
2023-01-07T05:41:05.841Z,12.77
2023-01-07T05:43:35.100Z,10.60
2023-01-07T05:46:04.095Z,12.43
2023-01-07T05:48:33.115Z,11.85
2023-01-07T05:51:02.117Z,17.00
2023-01-07T05:53:31.035Z,14.88
2023-01-07T05:56:01.013Z,14.93
2023-01-07T05:58:31.413Z,15.32
2023-01-07T06:01:00.632Z,14.85
2023-01-07T06:03:29.653Z,12.10
2023-01-07T06:05:58.710Z,12.35
2023-01-07T06:08:27.808Z,13.48
2023-01-07T06:10:56.848Z,14.30
2023-01-07T06:13:25.802Z,11.18
2023-01-07T06:16:00.520Z,12.45
2023-01-07T06:18:29.761Z,13.77
2023-01-07T06:20:58.761Z,11.20
2023-01-07T06:23:27.722Z,10.77
2023-01-07T06:25:56.807Z,15.75
2023-01-07T06:28:25.814Z,11.73
2023-01-07T06:30:56.300Z,12.65
2023-01-07T06:33:25.362Z,11.00
2023-01-07T06:35:54.437Z,13.50
2023-01-07T06:38:23.451Z,9.17
2023-01-07T06:40:52.502Z,12.18
2023-01-07T06:43:21.723Z,14.35
2023-01-07T06:45:50.920Z,12.88
2023-01-07T06:48:21.438Z,12.77
2023-01-07T06:50:50.409Z,11.43
2023-01-07T06:53:19.435Z,12.13
2023-01-07T06:55:50.384Z,10.93
2023-01-07T06:58:19.829Z,12.57
2023-01-07T07:00:48.836Z,12.40
2023-01-07T07:03:17.864Z,10.90
2023-01-07T07:05:48.608Z,10.95
2023-01-07T07:08:17.532Z,12.18
2023-01-07T07:10:46.566Z,10.75
2023-01-07T07:13:15.465Z,10.32
2023-01-07T07:15:44.510Z,10.50
2023-01-07T07:18:13.462Z,11.70
2023-01-07T07:20:42.381Z,15.60
2023-01-07T07:23:12.788Z,11.45
2023-01-07T07:25:42.131Z,11.23
2023-01-07T07:28:11.017Z,8.13
2023-01-07T07:30:45.735Z,9.52
2023-01-07T07:33:19.380Z,8.67
2023-01-07T07:35:49.273Z,11.82
2023-01-07T07:38:19.599Z,9.00
2023-01-07T07:40:48.651Z,13.30
2023-01-07T07:43:17.962Z,9.55
2023-01-07T07:45:47.074Z,12.82
2023-01-07T07:48:17.103Z,9.35
2023-01-07T07:50:46.097Z,9.48
2023-01-07T07:53:15.342Z,10.60
2023-01-07T07:55:46.505Z,8.70
2023-01-07T07:58:16.149Z,9.30
2023-01-07T08:00:45.108Z,10.68
2023-01-07T08:03:14.242Z,8.80
2023-01-07T08:05:44.820Z,8.77
2023-01-07T08:08:16.125Z,10.07
2023-01-07T08:10:46.514Z,10.63
2023-01-07T08:13:15.596Z,8.93
2023-01-07T08:15:44.501Z,7.40
2023-01-07T08:18:13.392Z,7.68
2023-01-07T08:20:42.563Z,10.17
2023-01-07T08:23:11.531Z,9.30
2023-01-07T08:25:40.496Z,7.10
2023-01-07T08:28:12.306Z,8.40
2023-01-07T08:30:41.463Z,13.40
2023-01-07T08:33:10.644Z,9.00
2023-01-07T08:35:39.675Z,8.67
2023-01-07T08:38:10.240Z,7.30
2023-01-07T08:40:39.673Z,11.33
2023-01-07T08:43:10.914Z,11.00
2023-01-07T08:45:40.112Z,6.67
2023-01-07T08:48:09.367Z,7.07
2023-01-07T08:50:38.317Z,7.63
2023-01-07T08:53:07.265Z,6.53
2023-01-07T08:55:36.264Z,9.73
2023-01-07T08:58:05.308Z,11.00
2023-01-07T09:00:35.665Z,8.43
2023-01-07T09:03:05.175Z,7.70
2023-01-07T09:05:35.352Z,6.90
2023-01-07T09:08:04.441Z,6.60
2023-01-07T09:10:33.784Z,8.23
2023-01-07T09:13:02.822Z,8.30
2023-01-07T09:15:36.089Z,7.37
2023-01-07T09:18:05.264Z,6.10
2023-01-07T09:20:34.346Z,6.17
2023-01-07T09:23:03.235Z,6.37
2023-01-07T09:25:32.202Z,6.83
2023-01-07T09:28:01.096Z,8.90
2023-01-07T09:30:31.290Z,7.60
2023-01-07T09:33:02.239Z,8.10
2023-01-07T09:35:31.457Z,6.43
2023-01-07T09:38:00.778Z,6.27
2023-01-07T09:40:32.411Z,7.20
2023-01-07T09:43:09.105Z,6.00
2023-01-07T09:45:42.258Z,5.93
2023-01-07T09:48:22.189Z,6.93
2023-01-07T09:50:58.629Z,5.53
2023-01-07T09:53:32.227Z,8.77
2023-01-07T09:56:11.200Z,5.30
2023-01-07T09:58:46.290Z,5.73
2023-01-07T10:01:25.068Z,7.37
2023-01-07T10:04:09.491Z,4.93
2023-01-07T10:06:47.777Z,8.73
2023-01-07T10:09:30.784Z,7.67
2023-01-07T10:12:07.634Z,6.40
2023-01-07T10:14:50.566Z,8.53
2023-01-07T10:17:30.936Z,5.97
2023-01-07T10:20:12.317Z,5.20
2023-01-07T10:22:49.279Z,6.00
2023-01-07T10:25:23.329Z,3.97
2023-01-07T10:27:55.769Z,5.40
2023-01-07T10:30:29.044Z,6.43
2023-01-07T10:33:05.657Z,5.13
2023-01-07T10:35:40.755Z,7.83
2023-01-07T10:38:17.136Z,8.23
2023-01-07T10:40:50.978Z,4.27
2023-01-07T10:43:35.215Z,5.90
2023-01-07T10:46:23.066Z,13.80
2023-01-07T10:49:19.956Z,6.03
2023-01-07T10:52:24.252Z,5.30
2023-01-07T10:55:27.288Z,5.40
2023-01-07T10:57:56.379Z,5.43
2023-01-07T11:00:26.833Z,3.83
2023-01-07T11:03:01.230Z,11.93
2023-01-07T11:05:37.924Z,8.10
2023-01-07T11:08:24.569Z,5.63
2023-01-07T11:10:53.702Z,6.37
2023-01-07T11:13:27.715Z,8.13
2023-01-07T11:16:00.071Z,6.83
2023-01-07T11:18:35.598Z,7.40
2023-01-07T11:21:05.097Z,4.90
2023-01-07T11:23:37.652Z,7.70
2023-01-07T11:26:19.143Z,5.80
2023-01-07T11:28:54.272Z,5.90
2023-01-07T11:31:25.562Z,6.33
2023-01-07T11:34:01.475Z,4.73
2023-01-07T11:36:44.754Z,8.67
2023-01-07T11:39:22.545Z,3.73
2023-01-07T11:41:59.769Z,7.30
2023-01-07T11:44:29.022Z,5.40
2023-01-07T11:46:58.187Z,5.50
2023-01-07T11:49:30.399Z,4.93
2023-01-07T11:52:00.264Z,6.37
2023-01-07T11:54:32.042Z,4.50
2023-01-07T11:57:14.469Z,8.30
2023-01-07T11:59:44.035Z,4.57
2023-01-07T12:02:27.127Z,3.90
2023-01-07T12:05:19.846Z,5.17
2023-01-07T12:07:50.647Z,4.27
2023-01-07T12:10:42.635Z,3.27
2023-01-07T12:13:23.785Z,4.27
2023-01-07T12:15:57.724Z,3.93
2023-01-07T12:18:50.901Z,4.83
2023-01-07T12:21:52.048Z,3.70
2023-01-07T12:24:53.714Z,3.30
2023-01-07T12:27:40.381Z,2.60
2023-01-07T12:30:26.411Z,2.60
2023-01-07T12:33:07.096Z,2.23
2023-01-07T12:35:42.401Z,2.40
2023-01-07T12:38:15.735Z,3.80
2023-01-07T12:40:53.354Z,3.27
2023-01-07T12:43:32.229Z,3.57
2023-01-07T12:46:04.061Z,2.83
2023-01-07T12:48:43.976Z,2.97
2023-01-07T12:51:19.703Z,3.20
2023-01-07T12:53:54.753Z,3.17
2023-01-07T12:56:30.606Z,2.40
2023-01-07T12:59:08.008Z,2.67
2023-01-07T13:01:43.815Z,2.80
2023-01-07T13:04:22.654Z,2.47
2023-01-07T13:06:57.653Z,3.60
2023-01-07T13:09:34.390Z,3.43
2023-01-07T13:12:42.047Z,6.93
2023-01-07T13:15:27.171Z,3.67
2023-01-07T13:17:58.441Z,2.80
2023-01-07T13:20:41.077Z,3.73
2023-01-07T13:23:18.887Z,5.07
2023-01-07T13:26:14.021Z,2.50
2023-01-07T13:29:13.543Z,4.07
2023-01-07T13:32:17.103Z,3.33
2023-01-07T13:35:01.261Z,2.70
2023-01-07T13:37:54.780Z,3.27
2023-01-07T13:40:42.017Z,2.90
2023-01-07T13:43:29.026Z,4.63
2023-01-07T13:46:11.334Z,8.37
2023-01-07T13:48:48.900Z,2.53
2023-01-07T13:51:26.695Z,3.87
2023-01-07T13:53:56.382Z,4.10
2023-01-07T13:56:37.657Z,3.67
2023-01-07T13:59:31.623Z,3.60
2023-01-07T14:02:23.121Z,2.93
2023-01-07T14:05:07.736Z,5.20
2023-01-07T14:07:47.480Z,5.83
2023-01-07T14:10:26.967Z,4.20
2023-01-07T14:13:21.478Z,5.70
2023-01-07T14:16:08.255Z,4.83
2023-01-07T14:19:08.770Z,2.93
2023-01-07T14:21:52.121Z,8.63
2023-01-07T14:24:39.415Z,4.40
2023-01-07T14:27:27.691Z,3.60
2023-01-07T14:30:02.954Z,5.13
2023-01-07T14:32:40.992Z,3.27
2023-01-07T14:35:25.735Z,3.47
2023-01-07T14:37:57.156Z,5.97
2023-01-07T14:40:54.044Z,4.23
2023-01-07T14:43:49.518Z,3.13
2023-01-07T14:46:47.229Z,3.43
2023-01-07T14:49:56.140Z,9.37
2023-01-07T14:53:08.451Z,5.30
2023-01-07T14:56:15.599Z,5.10
2023-01-07T14:59:02.184Z,4.07
2023-01-07T15:01:57.335Z,4.90
2023-01-07T15:04:54.242Z,4.60
2023-01-07T15:07:28.208Z,3.47
2023-01-07T15:10:17.529Z,6.93
2023-01-07T15:13:09.519Z,4.90
2023-01-07T15:15:58.723Z,3.83
2023-01-07T15:18:29.063Z,4.53
2023-01-07T15:21:16.095Z,5.77
2023-01-07T15:23:55.354Z,5.80
2023-01-07T15:26:33.721Z,6.60
2023-01-07T15:29:12.667Z,6.97
2023-01-07T15:31:49.491Z,7.27
2023-01-07T15:34:21.388Z,6.93
2023-01-07T15:36:52.955Z,5.75
2023-01-07T15:39:27.832Z,7.33
2023-01-07T15:41:58.800Z,6.33
2023-01-07T15:44:41.084Z,5.37
2023-01-07T15:47:32.727Z,4.70
2023-01-07T15:50:24.896Z,10.43
2023-01-07T15:52:56.577Z,5.60
2023-01-07T15:55:32.395Z,6.10
2023-01-07T15:58:05.712Z,3.00
2023-01-07T16:00:38.190Z,4.67
2023-01-07T16:03:07.676Z,4.23
2023-01-07T16:05:40.034Z,3.80
2023-01-07T16:08:19.063Z,3.00
2023-01-07T16:11:02.054Z,6.03
2023-01-07T16:13:32.814Z,4.10
2023-01-07T16:16:06.668Z,4.03
2023-01-07T16:18:38.322Z,3.27
2023-01-07T16:21:13.698Z,2.97
2023-01-07T16:23:43.601Z,3.73
2023-01-07T16:26:20.622Z,3.40
2023-01-07T16:28:52.580Z,7.07
2023-01-07T16:31:28.020Z,4.03
2023-01-07T16:34:00.914Z,4.80
2023-01-07T16:36:34.213Z,3.83
2023-01-07T16:39:18.436Z,3.07
2023-01-07T16:41:49.526Z,4.03
2023-01-07T16:45:01.650Z,2.87
2023-01-07T16:47:37.811Z,3.63
2023-01-07T16:50:44.784Z,4.70
2023-01-07T16:53:31.462Z,2.97
2023-01-07T16:56:19.861Z,3.00
2023-01-07T16:58:57.288Z,3.60
2023-01-07T17:01:35.007Z,3.97
2023-01-07T17:04:17.037Z,4.30
2023-01-07T17:06:46.871Z,4.20
2023-01-07T17:09:25.512Z,3.30
2023-01-07T17:12:00.189Z,5.53
2023-01-07T17:14:51.982Z,3.40
2023-01-07T17:17:55.169Z,4.33
2023-01-07T17:20:27.522Z,3.30
2023-01-07T17:22:58.436Z,3.37
2023-01-07T17:25:30.726Z,3.10
2023-01-07T17:28:14.483Z,4.00
2023-01-07T17:30:48.554Z,3.80
2023-01-07T17:33:21.033Z,2.90
2023-01-07T17:35:59.653Z,4.87
2023-01-07T17:38:30.187Z,2.10
2023-01-07T17:41:00.103Z,3.73
2023-01-07T17:43:37.826Z,3.23
2023-01-07T17:46:09.460Z,3.17
2023-01-07T17:48:40.637Z,5.10
2023-01-07T17:51:16.444Z,5.93
2023-01-07T17:53:59.700Z,6.80
2023-01-07T17:56:34.009Z,3.37
2023-01-07T17:59:04.212Z,5.40
2023-01-07T18:01:37.012Z,5.30
2023-01-07T18:04:07.494Z,5.03
2023-01-07T18:06:44.931Z,4.10
2023-01-07T18:09:15.339Z,10.90
2023-01-07T18:12:05.226Z,5.13
2023-01-07T18:14:37.583Z,4.30
2023-01-07T18:17:09.238Z,4.50
2023-01-07T18:19:40.284Z,4.27
2023-01-07T18:22:12.657Z,5.10
2023-01-07T18:24:43.766Z,4.83
2023-01-07T18:27:17.983Z,4.17
2023-01-07T18:29:47.766Z,4.57
2023-01-07T18:32:17.981Z,3.20
2023-01-07T18:34:52.687Z,4.00
2023-01-07T18:37:26.893Z,6.13
2023-01-07T18:40:02.838Z,4.30
2023-01-07T18:42:35.128Z,3.53
2023-01-07T18:45:06.056Z,7.73
2023-01-07T18:47:35.709Z,6.47
2023-01-07T18:50:06.434Z,5.93
2023-01-07T18:52:40.834Z,5.53
2023-01-07T18:55:12.665Z,6.37
2023-01-07T18:57:44.967Z,4.67
2023-01-07T19:00:19.510Z,4.40
2023-01-07T19:02:58.566Z,9.97
2023-01-07T19:05:28.938Z,6.80
2023-01-07T19:08:03.237Z,5.00
2023-01-07T19:10:33.458Z,5.70
2023-01-07T19:13:06.062Z,6.90
2023-01-07T19:15:36.807Z,4.87
2023-01-07T19:18:10.087Z,5.20
2023-01-07T19:20:44.591Z,6.40
2023-01-07T19:23:18.023Z,8.37
2023-01-07T19:26:05.071Z,5.87
2023-01-07T19:28:36.172Z,7.73
2023-01-07T19:31:09.619Z,6.80
2023-01-07T19:33:41.899Z,8.50
2023-01-07T19:36:17.806Z,7.00
2023-01-07T19:38:50.564Z,6.70
2023-01-07T19:41:22.871Z,9.00
2023-01-07T19:43:59.992Z,8.37
2023-01-07T19:46:35.637Z,6.87
2023-01-07T19:49:07.911Z,6.17
2023-01-07T19:51:44.161Z,5.83
2023-01-07T19:54:18.272Z,7.17
2023-01-07T19:56:51.092Z,7.73
2023-01-07T19:59:31.866Z,10.10
2023-01-07T20:02:05.471Z,7.03
2023-01-07T20:04:35.784Z,7.30
2023-01-07T20:07:07.629Z,6.80
2023-01-07T20:09:43.052Z,6.93
2023-01-07T20:12:12.758Z,7.73
2023-01-07T20:14:42.886Z,5.80
2023-01-07T20:17:13.630Z,7.80
2023-01-07T20:19:45.230Z,6.10
2023-01-07T20:22:16.908Z,5.90
2023-01-07T20:24:49.095Z,5.70
2023-01-07T20:27:21.513Z,5.73
2023-01-07T20:29:52.713Z,6.20
2023-01-07T20:32:23.028Z,5.83
2023-01-07T20:34:53.059Z,6.00
2023-01-07T20:37:24.249Z,6.80
2023-01-07T20:39:56.457Z,5.97
2023-01-07T20:42:27.424Z,6.27
2023-01-07T20:45:01.048Z,6.10
2023-01-07T20:47:34.268Z,7.03
2023-01-07T20:50:04.930Z,7.93
2023-01-07T20:52:35.766Z,4.37
2023-01-07T20:55:10.519Z,6.00
2023-01-07T20:57:41.443Z,5.87
2023-01-07T21:00:16.189Z,7.50
2023-01-07T21:02:47.972Z,5.73
2023-01-07T21:06:12.099Z,6.20
2023-01-07T21:08:47.351Z,5.67
2023-01-07T21:11:25.995Z,5.27
2023-01-07T21:13:56.941Z,6.77
2023-01-07T21:16:28.853Z,7.93
2023-01-07T21:19:01.195Z,5.43
2023-01-07T21:21:32.884Z,10.53
2023-01-07T21:24:08.102Z,8.73
2023-01-07T21:26:46.862Z,6.03
2023-01-07T21:29:19.743Z,6.73
2023-01-07T21:31:53.919Z,9.33
2023-01-07T21:34:24.838Z,5.70
2023-01-07T21:36:55.969Z,7.47
2023-01-07T21:39:31.790Z,6.67
2023-01-07T21:42:04.371Z,8.00
2023-01-07T21:44:34.359Z,6.63
2023-01-07T21:47:06.725Z,6.00
2023-01-07T21:49:37.507Z,5.80
2023-01-07T21:52:09.770Z,6.80
2023-01-07T21:54:40.169Z,5.40
2023-01-07T21:57:17.034Z,7.00
2023-01-07T21:59:47.740Z,8.63
2023-01-07T22:02:19.704Z,8.90
2023-01-07T22:04:51.797Z,7.90
2023-01-07T22:07:29.949Z,8.97
2023-01-07T22:10:01.908Z,4.93
2023-01-07T22:12:37.216Z,6.90
2023-01-07T22:15:08.855Z,6.75
2023-01-07T22:17:39.925Z,6.80
2023-01-07T22:20:12.176Z,7.57
2023-01-07T22:22:50.117Z,5.80
2023-01-07T22:25:21.017Z,8.60
2023-01-07T22:28:09.924Z,6.80
2023-01-07T22:30:46.990Z,6.70
2023-01-07T22:33:21.074Z,7.30
2023-01-07T22:35:52.412Z,5.70
2023-01-07T22:38:26.362Z,7.03
2023-01-07T22:41:00.697Z,4.90
2023-01-07T22:43:39.310Z,6.67
2023-01-07T22:46:14.459Z,6.35
2023-01-07T22:48:46.764Z,5.82
2023-01-07T22:51:26.841Z,6.70
2023-01-07T22:54:02.428Z,5.38
2023-01-07T22:56:38.817Z,7.00
2023-01-07T22:59:15.622Z,6.30
2023-01-07T23:01:47.208Z,12.03
2023-01-07T23:04:17.122Z,7.80
2023-01-07T23:06:48.219Z,6.45
2023-01-07T23:09:20.231Z,6.37
2023-01-07T23:11:51.055Z,7.18
2023-01-07T23:14:25.539Z,6.47
2023-01-07T23:17:03.666Z,6.63
2023-01-07T23:19:35.050Z,7.17
2023-01-07T23:22:10.765Z,6.90
2023-01-07T23:24:39.792Z,7.73
2023-01-07T23:27:08.653Z,7.05
2023-01-07T23:29:39.087Z,5.65
2023-01-07T23:32:12.582Z,7.47
2023-01-07T23:34:41.566Z,6.57
2023-01-07T23:37:10.673Z,6.40
2023-01-07T23:39:39.608Z,6.20
2023-01-07T23:42:08.765Z,6.30
2023-01-07T23:44:39.384Z,5.88
2023-01-07T23:47:08.614Z,7.07
2023-01-07T23:49:38.022Z,6.90
2023-01-07T23:52:07.262Z,5.47
2023-01-07T23:54:36.156Z,6.18
2023-01-07T23:57:05.330Z,5.60
2023-01-07T23:59:34.360Z,6.60
